createdAt,value
2023-03-01T00:00:47.790Z,2.07
2023-03-01T00:03:34.564Z,2.00
2023-03-01T00:06:21.702Z,1.93
2023-03-01T00:09:08.273Z,1.90
2023-03-01T00:11:56.888Z,1.83
2023-03-01T00:14:43.412Z,2.00
2023-03-01T00:17:29.880Z,1.83
2023-03-01T00:20:16.031Z,2.07
2023-03-01T00:23:02.092Z,2.20
2023-03-01T00:25:48.336Z,2.10
2023-03-01T00:28:36.102Z,2.17
2023-03-01T00:31:23.985Z,2.87
2023-03-01T00:34:11.522Z,3.50
2023-03-01T00:37:06.335Z,2.47
2023-03-01T00:39:52.912Z,2.90
2023-03-01T00:42:39.238Z,2.50
2023-03-01T00:45:27.199Z,2.23
2023-03-01T00:48:13.866Z,2.30
2023-03-01T00:51:05.823Z,2.40
2023-03-01T00:53:52.514Z,3.27
2023-03-01T00:56:38.845Z,3.20
2023-03-01T00:59:25.343Z,2.37
2023-03-01T01:02:12.879Z,3.97
2023-03-01T01:04:59.394Z,3.00
2023-03-01T01:07:45.532Z,3.73
2023-03-01T01:10:31.902Z,3.67
2023-03-01T01:13:18.066Z,3.10
2023-03-01T01:16:04.802Z,3.03
2023-03-01T01:18:52.926Z,2.17
2023-03-01T01:21:39.135Z,2.00
2023-03-01T01:24:25.388Z,1.63
2023-03-01T01:27:11.806Z,1.90
2023-03-01T01:29:58.526Z,2.03
2023-03-01T01:32:44.801Z,1.97
2023-03-01T01:35:32.271Z,1.53
2023-03-01T01:38:18.696Z,2.20
2023-03-01T01:41:06.053Z,2.13
2023-03-01T01:44:12.658Z,1.77
2023-03-01T01:47:00.310Z,1.80
2023-03-01T01:49:48.160Z,1.70
2023-03-01T01:52:36.811Z,1.63
2023-03-01T01:55:24.759Z,1.60
2023-03-01T01:58:12.481Z,1.30
2023-03-01T02:00:58.904Z,1.83
2023-03-01T02:03:45.896Z,1.57
2023-03-01T02:06:34.767Z,1.50
2023-03-01T02:09:24.027Z,1.47
2023-03-01T02:12:10.593Z,1.70
2023-03-01T02:14:57.180Z,1.97
2023-03-01T02:17:43.466Z,1.40
2023-03-01T02:20:35.637Z,1.70
2023-03-01T02:23:21.841Z,2.10
2023-03-01T02:26:12.344Z,1.80
2023-03-01T02:28:59.830Z,1.70
2023-03-01T02:31:46.367Z,1.60
2023-03-01T02:34:33.658Z,1.53
2023-03-01T02:37:25.896Z,2.07
2023-03-01T02:40:16.537Z,1.80
2023-03-01T02:43:02.645Z,2.03
2023-03-01T02:45:52.244Z,1.97
2023-03-01T02:48:42.624Z,1.60
2023-03-01T02:51:35.828Z,1.47
2023-03-01T02:54:26.758Z,1.70
2023-03-01T02:57:13.591Z,1.60
2023-03-01T03:00:01.733Z,2.00
2023-03-01T03:02:50.144Z,2.07
2023-03-01T03:05:37.087Z,1.67
2023-03-01T03:08:25.279Z,1.60
2023-03-01T03:11:11.921Z,2.30
2023-03-01T03:13:58.875Z,2.20
2023-03-01T03:16:46.054Z,2.00
2023-03-01T03:19:35.577Z,1.60
2023-03-01T03:22:23.992Z,1.87
2023-03-01T03:25:11.579Z,1.83
2023-03-01T03:27:59.040Z,1.80
2023-03-01T03:30:46.240Z,1.57
2023-03-01T03:33:32.799Z,2.10
2023-03-01T03:36:21.768Z,2.07
2023-03-01T03:39:07.915Z,2.17
2023-03-01T03:41:54.486Z,1.70
2023-03-01T03:44:40.788Z,2.07
2023-03-01T03:47:27.016Z,2.13
2023-03-01T03:50:13.962Z,1.93
2023-03-01T03:53:02.079Z,2.20
2023-03-01T03:55:50.386Z,11.80
2023-03-01T03:58:37.020Z,3.40
2023-03-01T04:01:23.256Z,3.00
2023-03-01T04:04:09.911Z,1.70
2023-03-01T04:06:56.423Z,2.00
2023-03-01T04:09:43.883Z,2.53
2023-03-01T04:12:30.291Z,2.47
2023-03-01T04:15:16.857Z,2.33
2023-03-01T04:18:03.942Z,1.80
2023-03-01T04:20:50.345Z,2.37
2023-03-01T04:23:37.085Z,2.10
2023-03-01T04:26:25.370Z,1.77
2023-03-01T04:29:11.509Z,2.27
2023-03-01T04:31:58.066Z,2.00
2023-03-01T04:34:44.522Z,1.60
2023-03-01T04:37:31.169Z,2.63
2023-03-01T04:40:18.195Z,3.10
2023-03-01T04:43:06.560Z,3.90
2023-03-01T04:45:53.183Z,4.37
2023-03-01T04:48:40.075Z,7.13
2023-03-01T04:51:26.751Z,4.33
2023-03-01T04:54:12.874Z,2.87
2023-03-01T04:56:59.361Z,6.03
2023-03-01T04:59:47.498Z,12.33
2023-03-01T05:02:33.867Z,7.50
2023-03-01T05:05:20.174Z,5.70
2023-03-01T05:08:07.881Z,3.93
2023-03-01T05:10:55.460Z,4.33
2023-03-01T05:13:41.843Z,2.60
2023-03-01T05:16:29.732Z,3.23
2023-03-01T05:19:17.259Z,2.63
2023-03-01T05:22:05.015Z,1.97
2023-03-01T05:24:51.528Z,1.97
2023-03-01T05:27:38.487Z,2.00
2023-03-01T05:30:24.853Z,2.23
2023-03-01T05:33:14.517Z,2.73
2023-03-01T05:36:02.257Z,3.17
2023-03-01T05:38:48.526Z,2.93
2023-03-01T05:41:34.776Z,3.40
2023-03-01T05:44:21.333Z,3.13
2023-03-01T05:47:07.539Z,2.80
2023-03-01T05:49:55.362Z,2.43
2023-03-01T05:52:41.841Z,2.00
2023-03-01T05:55:29.246Z,3.00
2023-03-01T05:58:16.640Z,2.33
2023-03-01T06:01:03.091Z,2.30
2023-03-01T06:03:49.553Z,3.07
2023-03-01T06:06:38.510Z,3.43
2023-03-01T06:09:27.032Z,3.77
2023-03-01T06:12:14.016Z,3.17
2023-03-01T06:15:00.598Z,4.33
2023-03-01T06:17:47.298Z,5.47
2023-03-01T06:20:33.533Z,4.00
2023-03-01T06:23:21.418Z,4.77
2023-03-01T06:26:08.711Z,3.97
2023-03-01T06:28:55.192Z,3.07
2023-03-01T06:31:41.620Z,2.90
2023-03-01T06:34:27.846Z,6.77
2023-03-01T06:37:13.832Z,5.23
2023-03-01T06:40:05.719Z,3.83
2023-03-01T06:42:52.319Z,3.73
2023-03-01T06:45:38.727Z,4.40
2023-03-01T06:48:25.121Z,3.70
2023-03-01T06:51:11.620Z,3.87
2023-03-01T06:53:58.348Z,4.13
2023-03-01T06:56:49.975Z,3.20
2023-03-01T06:59:36.465Z,2.80
2023-03-01T07:02:23.017Z,3.43
2023-03-01T07:05:09.663Z,3.33
2023-03-01T07:07:57.315Z,3.33
2023-03-01T07:10:43.789Z,3.33
2023-03-01T07:13:31.651Z,3.50
2023-03-01T07:16:18.260Z,3.57
2023-03-01T07:19:06.376Z,3.37
2023-03-01T07:21:52.644Z,4.67
2023-03-01T07:24:39.257Z,3.40
2023-03-01T07:27:25.786Z,2.70
2023-03-01T07:30:13.752Z,2.77
2023-03-01T07:33:00.776Z,2.60
2023-03-01T07:35:47.156Z,2.87
2023-03-01T07:38:33.941Z,3.20
2023-03-01T07:41:20.278Z,3.17
2023-03-01T07:44:06.958Z,2.83
2023-03-01T07:46:57.268Z,2.70
2023-03-01T07:49:43.462Z,3.53
2023-03-01T07:52:29.857Z,2.70
2023-03-01T07:55:16.188Z,2.97
2023-03-01T07:58:02.931Z,2.17
2023-03-01T08:00:49.569Z,2.13
2023-03-01T08:03:38.014Z,2.27
2023-03-01T08:06:24.251Z,2.83
2023-03-01T08:09:10.744Z,7.03
2023-03-01T08:12:00.522Z,3.83
2023-03-01T08:14:46.793Z,3.70
2023-03-01T08:17:33.003Z,3.37
2023-03-01T08:20:20.635Z,2.97
2023-03-01T08:23:07.119Z,2.77
2023-03-01T08:25:54.007Z,3.33
2023-03-01T08:28:41.032Z,3.13
2023-03-01T08:31:28.634Z,3.37
2023-03-01T08:34:16.573Z,4.17
2023-03-01T08:37:04.109Z,18.40
2023-03-01T08:39:50.628Z,2.70
2023-03-01T08:42:37.128Z,2.53
2023-03-01T08:45:23.431Z,2.93
2023-03-01T08:48:09.756Z,2.50
2023-03-01T08:50:56.180Z,3.37
2023-03-01T08:53:43.871Z,2.97
2023-03-01T08:56:30.198Z,2.63
2023-03-01T08:59:18.155Z,2.87
2023-03-01T09:02:04.763Z,2.77
2023-03-01T09:04:51.353Z,2.87
2023-03-01T09:07:37.556Z,3.60
2023-03-01T09:10:25.101Z,4.30
2023-03-01T09:13:11.936Z,3.63
2023-03-01T09:15:58.375Z,3.40
2023-03-01T09:18:44.890Z,4.60
2023-03-01T09:21:40.288Z,5.97
2023-03-01T09:24:27.440Z,5.13
2023-03-01T09:27:16.054Z,4.03
2023-03-01T09:30:02.402Z,5.93
2023-03-01T09:32:49.027Z,4.57
2023-03-01T09:35:35.328Z,6.47
2023-03-01T09:38:21.756Z,4.90
2023-03-01T09:41:13.774Z,7.33
2023-03-01T09:44:02.213Z,4.90
2023-03-01T09:46:49.045Z,2.87
2023-03-01T09:49:37.496Z,3.10
2023-03-01T09:52:27.661Z,3.00
2023-03-01T09:55:15.190Z,2.93
2023-03-01T09:58:03.670Z,3.77
2023-03-01T10:00:52.169Z,3.43
2023-03-01T10:03:41.540Z,2.97
2023-03-01T10:06:35.106Z,3.80
2023-03-01T10:09:22.477Z,3.33
2023-03-01T10:12:11.370Z,3.30
2023-03-01T10:15:00.061Z,2.80
2023-03-01T10:17:50.737Z,2.73
2023-03-01T10:20:44.600Z,6.37
2023-03-01T10:23:33.090Z,4.50
2023-03-01T10:26:25.727Z,3.13
2023-03-01T10:29:12.657Z,2.73
2023-03-01T10:31:58.748Z,3.07
2023-03-01T10:34:46.773Z,2.83
2023-03-01T10:37:33.640Z,3.03
2023-03-01T10:40:20.243Z,2.90
2023-03-01T10:43:08.501Z,3.57
2023-03-01T10:45:55.477Z,3.47
2023-03-01T10:48:42.214Z,3.67
2023-03-01T10:51:30.230Z,2.93
2023-03-01T10:54:21.280Z,2.83
2023-03-01T10:57:07.794Z,2.93
2023-03-01T11:00:02.695Z,2.50
2023-03-01T11:02:50.331Z,4.03
2023-03-01T11:05:36.861Z,2.73
2023-03-01T11:08:38.308Z,2.80
2023-03-01T11:11:28.148Z,3.23
2023-03-01T11:14:26.314Z,3.23
2023-03-01T11:17:15.971Z,3.60
2023-03-01T11:20:03.744Z,3.93
2023-03-01T11:22:51.466Z,4.33
2023-03-01T11:25:40.063Z,3.70
2023-03-01T11:28:28.330Z,2.83
2023-03-01T11:31:15.961Z,2.40
2023-03-01T11:34:07.621Z,3.53
2023-03-01T11:36:56.210Z,4.47
2023-03-01T11:39:46.042Z,4.27
2023-03-01T11:42:38.548Z,3.47
2023-03-01T11:45:26.711Z,3.80
2023-03-01T11:48:26.177Z,3.50
2023-03-01T11:51:18.810Z,3.10
2023-03-01T11:54:12.123Z,3.73
2023-03-01T11:57:01.401Z,4.17
2023-03-01T12:00:05.980Z,3.83
2023-03-01T12:03:16.284Z,3.60
2023-03-01T12:06:08.067Z,3.33
2023-03-01T12:09:01.686Z,4.60
2023-03-01T12:12:10.839Z,3.93
2023-03-01T12:15:12.208Z,3.97
2023-03-01T12:18:09.778Z,3.43
2023-03-01T12:21:01.198Z,4.90
2023-03-01T12:23:59.278Z,4.13
2023-03-01T12:26:49.625Z,4.07
2023-03-01T12:29:39.585Z,3.80
2023-03-01T12:32:31.815Z,4.10
2023-03-01T12:35:26.379Z,3.90
2023-03-01T12:38:19.546Z,4.67
2023-03-01T12:41:33.125Z,4.80
2023-03-01T12:44:38.849Z,4.87
2023-03-01T12:47:32.147Z,5.20
2023-03-01T12:50:20.821Z,5.13
2023-03-01T12:53:07.492Z,5.07
2023-03-01T12:55:55.489Z,6.57
2023-03-01T12:58:50.078Z,5.57
2023-03-01T13:01:43.222Z,4.73
2023-03-01T13:04:35.287Z,5.30
2023-03-01T13:07:31.711Z,5.87
2023-03-01T13:10:22.301Z,5.87
2023-03-01T13:13:16.294Z,5.70
2023-03-01T13:16:17.330Z,5.63
2023-03-01T13:19:14.813Z,4.57
2023-03-01T13:22:01.640Z,5.03
2023-03-01T13:24:47.671Z,12.27
2023-03-01T13:27:34.607Z,8.13
2023-03-01T13:30:39.030Z,6.53
2023-03-01T13:33:48.082Z,4.93
2023-03-01T13:36:55.558Z,5.00
2023-03-01T13:39:43.250Z,4.50
2023-03-01T13:42:38.428Z,5.10
2023-03-01T13:45:26.632Z,5.97
2023-03-01T13:48:18.535Z,5.13
2023-03-01T13:51:05.615Z,5.53
2023-03-01T13:53:52.499Z,5.17
2023-03-01T13:56:40.687Z,6.37
2023-03-01T13:59:27.403Z,4.30
2023-03-01T14:02:18.844Z,3.80
2023-03-01T14:05:05.586Z,3.50
2023-03-01T14:07:53.297Z,3.40
2023-03-01T14:10:47.051Z,3.73
2023-03-01T14:13:42.663Z,3.57
2023-03-01T14:16:35.865Z,2.63
2023-03-01T14:19:33.087Z,3.47
2023-03-01T14:22:22.732Z,2.87
2023-03-01T14:25:19.457Z,3.80
2023-03-01T14:28:06.816Z,5.80
2023-03-01T14:30:55.941Z,4.40
2023-03-01T14:33:42.992Z,4.53
2023-03-01T14:36:30.447Z,5.90
2023-03-01T14:39:21.472Z,10.07
2023-03-01T14:42:15.433Z,4.63
2023-03-01T14:45:03.405Z,4.97
2023-03-01T14:47:51.973Z,3.43
2023-03-01T14:50:42.298Z,3.47
2023-03-01T14:53:29.798Z,5.87
2023-03-01T14:56:18.486Z,5.10
2023-03-01T14:59:04.942Z,4.47
2023-03-01T15:01:52.008Z,4.27
2023-03-01T15:04:39.996Z,4.23
2023-03-01T15:07:30.789Z,5.83
2023-03-01T15:10:20.949Z,8.53
2023-03-01T15:13:14.312Z,6.10
2023-03-01T15:16:08.964Z,6.03
2023-03-01T15:18:56.334Z,9.23
2023-03-01T15:21:46.615Z,18.03
2023-03-01T15:24:35.013Z,10.90
2023-03-01T15:27:22.958Z,10.70
2023-03-01T15:30:19.308Z,6.63
2023-03-01T15:33:22.460Z,5.93
2023-03-01T15:36:27.440Z,8.50
2023-03-01T15:39:32.782Z,6.60
2023-03-01T15:42:38.998Z,6.80
2023-03-01T15:45:28.264Z,7.07
2023-03-01T15:48:17.473Z,6.77
2023-03-01T15:51:03.680Z,12.00
2023-03-01T15:53:54.480Z,14.60
2023-03-01T15:56:41.242Z,9.17
2023-03-01T15:59:28.832Z,9.87
2023-03-01T16:02:15.440Z,8.00
2023-03-01T16:05:01.827Z,15.00
2023-03-01T16:07:48.089Z,8.20
2023-03-01T16:10:34.718Z,6.83
2023-03-01T16:13:21.149Z,7.03
2023-03-01T16:16:09.692Z,6.10
2023-03-01T16:18:56.137Z,8.07
2023-03-01T16:21:43.284Z,6.67
2023-03-01T16:24:29.840Z,6.00
2023-03-01T16:27:16.652Z,7.83
2023-03-01T16:30:02.970Z,11.10
2023-03-01T16:32:51.213Z,40.83
2023-03-01T16:35:41.543Z,17.13
2023-03-01T16:38:27.743Z,11.63
2023-03-01T16:41:15.156Z,9.20
2023-03-01T16:44:02.299Z,6.83
2023-03-01T16:46:49.191Z,5.93
2023-03-01T16:49:37.046Z,6.33
2023-03-01T16:52:24.338Z,6.20
2023-03-01T16:55:11.184Z,6.40
2023-03-01T16:57:57.422Z,6.20
2023-03-01T17:00:43.874Z,5.33
2023-03-01T17:03:31.080Z,5.63
2023-03-01T17:06:21.372Z,5.83
2023-03-01T17:09:08.046Z,5.33
2023-03-01T17:11:55.338Z,7.10
2023-03-01T17:14:42.378Z,8.27
2023-03-01T17:17:28.505Z,8.77
2023-03-01T17:20:15.038Z,8.53
2023-03-01T17:23:02.829Z,6.53
2023-03-01T17:25:49.247Z,4.83
2023-03-01T17:28:36.033Z,5.87
2023-03-01T17:31:23.260Z,6.83
2023-03-01T17:34:10.041Z,6.20
2023-03-01T17:36:56.476Z,5.83
2023-03-01T17:39:44.258Z,6.90
2023-03-01T17:42:30.731Z,6.90
2023-03-01T17:45:17.135Z,9.27
2023-03-01T17:48:03.189Z,8.37
2023-03-01T17:50:49.713Z,5.23
2023-03-01T17:53:35.904Z,4.43
2023-03-01T17:56:23.835Z,5.13
2023-03-01T17:59:10.868Z,5.17
2023-03-01T18:01:57.798Z,4.63
2023-03-01T18:04:43.903Z,7.17
2023-03-01T18:07:30.258Z,5.00
2023-03-01T18:10:16.330Z,6.93
2023-03-01T18:13:04.016Z,5.33
2023-03-01T18:15:50.430Z,10.13
2023-03-01T18:18:36.727Z,4.97
2023-03-01T18:21:24.043Z,4.93
2023-03-01T18:24:10.488Z,5.80
2023-03-01T18:26:56.802Z,4.90
2023-03-01T18:29:44.336Z,5.33
2023-03-01T18:32:30.904Z,6.50
2023-03-01T18:35:17.409Z,6.47
2023-03-01T18:38:03.843Z,5.57
2023-03-01T18:40:52.287Z,5.60
2023-03-01T18:43:38.463Z,5.03
2023-03-01T18:46:26.643Z,6.53
2023-03-01T18:49:14.178Z,5.00
2023-03-01T18:52:00.609Z,7.40
2023-03-01T18:54:46.838Z,6.57
2023-03-01T18:57:32.982Z,5.77
2023-03-01T19:00:20.237Z,6.70
2023-03-01T19:03:08.912Z,5.60
2023-03-01T19:05:55.372Z,6.97
2023-03-01T19:08:42.377Z,6.33
2023-03-01T19:11:31.089Z,6.70
2023-03-01T19:14:17.617Z,6.13
2023-03-01T19:17:04.101Z,7.37
2023-03-01T19:19:51.814Z,5.70
2023-03-01T19:22:38.202Z,7.43
2023-03-01T19:25:24.637Z,7.57
2023-03-01T19:28:11.137Z,7.03
2023-03-01T19:31:02.618Z,6.53
2023-03-01T19:33:50.101Z,6.47
2023-03-01T19:36:38.009Z,12.30
2023-03-01T19:39:24.393Z,7.30
2023-03-01T19:42:10.689Z,4.77
2023-03-01T19:44:56.997Z,6.37
2023-03-01T19:47:43.474Z,6.27
2023-03-01T19:50:29.791Z,6.07
2023-03-01T19:53:17.581Z,5.43
2023-03-01T19:56:04.105Z,6.23
2023-03-01T19:58:53.088Z,7.37
2023-03-01T20:01:42.536Z,7.63
2023-03-01T20:04:29.227Z,5.87
2023-03-01T20:07:15.832Z,10.87
2023-03-01T20:10:03.524Z,8.37
2023-03-01T20:12:50.051Z,6.77
2023-03-01T20:15:37.460Z,7.00
2023-03-01T20:18:23.746Z,7.60
2023-03-01T20:21:22.822Z,6.90
2023-03-01T20:24:10.466Z,6.17
2023-03-01T20:26:58.302Z,5.83
2023-03-01T20:29:45.976Z,6.43
2023-03-01T20:32:32.808Z,5.50
2023-03-01T20:35:19.557Z,4.97
2023-03-01T20:38:05.852Z,5.93
2023-03-01T20:40:52.159Z,6.20
2023-03-01T20:43:40.129Z,4.83
2023-03-01T20:46:27.210Z,6.23
2023-03-01T20:49:13.458Z,6.17
2023-03-01T20:51:59.675Z,5.57
2023-03-01T20:54:45.922Z,5.13
2023-03-01T20:57:32.227Z,6.20
2023-03-01T21:00:20.322Z,6.03
2023-03-01T21:03:06.484Z,5.97
2023-03-01T21:05:55.812Z,6.63
2023-03-01T21:08:42.370Z,7.03
2023-03-01T21:11:28.681Z,4.90
2023-03-01T21:14:15.141Z,6.53
2023-03-01T21:17:03.093Z,7.67
2023-03-01T21:19:50.665Z,5.57
2023-03-01T21:22:36.920Z,6.83
2023-03-01T21:25:23.547Z,5.77
2023-03-01T21:28:09.671Z,5.70
2023-03-01T21:30:56.040Z,5.83
2023-03-01T21:33:46.788Z,4.93
2023-03-01T21:36:33.714Z,4.60
2023-03-01T21:39:21.543Z,5.43
2023-03-01T21:42:08.032Z,5.13
2023-03-01T21:44:54.407Z,5.73
2023-03-01T21:47:40.662Z,5.60
2023-03-01T21:50:28.520Z,4.40
2023-03-01T21:53:14.937Z,4.97
2023-03-01T21:56:01.404Z,4.60
2023-03-01T21:58:47.697Z,5.60
2023-03-01T22:01:34.397Z,5.53
2023-03-01T22:04:22.461Z,5.43
2023-03-01T22:07:12.044Z,5.40
2023-03-01T22:09:59.238Z,5.93
2023-03-01T22:12:45.645Z,7.83
2023-03-01T22:15:32.038Z,5.70
2023-03-01T22:18:18.450Z,6.63
2023-03-01T22:21:06.123Z,6.63
2023-03-01T22:23:54.439Z,8.37
2023-03-01T22:26:41.751Z,6.40
2023-03-01T22:29:29.701Z,6.07
2023-03-01T22:32:16.241Z,6.73
2023-03-01T22:35:02.735Z,6.30
2023-03-01T22:37:49.063Z,6.43
2023-03-01T22:40:38.533Z,6.00
2023-03-01T22:43:25.137Z,5.77
2023-03-01T22:46:12.408Z,6.00
2023-03-01T22:48:58.859Z,5.50
2023-03-01T22:51:47.600Z,6.93
2023-03-01T22:54:33.864Z,5.70
2023-03-01T22:57:21.512Z,5.60
2023-03-01T23:00:13.230Z,5.97
2023-03-01T23:02:59.818Z,7.40
2023-03-01T23:05:46.405Z,6.37
2023-03-01T23:08:33.113Z,5.23
2023-03-01T23:11:19.978Z,5.43
2023-03-01T23:14:07.997Z,5.83
2023-03-01T23:16:55.161Z,5.77
2023-03-01T23:19:41.896Z,5.80
2023-03-01T23:22:31.142Z,5.80
2023-03-01T23:25:17.426Z,4.63
2023-03-01T23:28:03.721Z,4.47
2023-03-01T23:30:59.127Z,5.40
2023-03-01T23:33:46.034Z,4.70
2023-03-01T23:36:33.981Z,4.37
2023-03-01T23:39:20.672Z,4.87
2023-03-01T23:42:07.130Z,4.70
2023-03-01T23:44:53.221Z,4.47
2023-03-01T23:47:40.750Z,6.03
2023-03-01T23:50:27.279Z,4.97
2023-03-01T23:53:14.375Z,6.27
2023-03-01T23:56:01.771Z,6.23
2023-03-01T23:58:50.874Z,4.87
